createdAt,value
2023-01-30T00:01:11.961Z,39.83
2023-01-30T00:03:38.541Z,38.40
2023-01-30T00:06:05.129Z,44.67
2023-01-30T00:08:31.621Z,37.73
2023-01-30T00:11:04.257Z,38.27
2023-01-30T00:13:30.978Z,38.67
2023-01-30T00:15:57.737Z,39.90
2023-01-30T00:18:24.246Z,35.07
2023-01-30T00:20:57.860Z,40.57
2023-01-30T00:23:25.707Z,40.10
2023-01-30T00:25:52.683Z,42.00
2023-01-30T00:28:19.494Z,34.10
2023-01-30T00:30:48.831Z,39.00
2023-01-30T00:33:15.371Z,39.63
2023-01-30T00:35:48.713Z,44.53
2023-01-30T00:38:15.988Z,35.90
2023-01-30T00:40:42.930Z,38.87
2023-01-30T00:43:33.172Z,37.77
2023-01-30T00:46:19.654Z,42.57
2023-01-30T00:48:46.334Z,39.43
2023-01-30T00:51:13.406Z,36.87
2023-01-30T00:53:39.920Z,37.97
2023-01-30T00:56:06.988Z,36.50
2023-01-30T00:58:33.875Z,39.10
2023-01-30T01:01:00.380Z,38.27
2023-01-30T01:03:26.982Z,34.47
2023-01-30T01:05:53.474Z,39.27
2023-01-30T01:08:20.196Z,40.37
2023-01-30T01:10:46.774Z,43.20
2023-01-30T01:13:13.303Z,38.83
2023-01-30T01:15:39.773Z,34.60
2023-01-30T01:18:06.681Z,34.43
2023-01-30T01:20:33.192Z,33.10
2023-01-30T01:22:59.676Z,31.60
2023-01-30T01:25:26.341Z,29.03
2023-01-30T01:27:54.147Z,29.90
2023-01-30T01:30:21.074Z,31.97
2023-01-30T01:32:47.532Z,31.27
2023-01-30T01:35:14.071Z,27.27
2023-01-30T01:37:40.566Z,28.80
2023-01-30T01:40:26.358Z,27.83
2023-01-30T01:42:52.905Z,26.97
2023-01-30T01:45:22.851Z,27.90
2023-01-30T01:47:54.314Z,26.23
2023-01-30T01:50:27.528Z,27.30
2023-01-30T01:52:56.382Z,21.63
2023-01-30T01:55:24.751Z,23.13
2023-01-30T01:57:56.168Z,23.43
2023-01-30T02:00:23.646Z,23.17
2023-01-30T02:02:57.903Z,25.27
2023-01-30T02:05:27.179Z,24.00
2023-01-30T02:07:57.525Z,21.93
2023-01-30T02:10:27.990Z,21.27
2023-01-30T02:12:54.508Z,21.93
2023-01-30T02:15:21.057Z,18.40
2023-01-30T02:17:47.601Z,22.57
2023-01-30T02:20:27.719Z,19.20
2023-01-30T02:23:45.576Z,23.23
2023-01-30T02:26:29.560Z,23.97
2023-01-30T02:29:35.095Z,23.33
2023-01-30T02:32:16.625Z,29.07
2023-01-30T02:34:51.677Z,26.23
2023-01-30T02:37:28.771Z,27.43
2023-01-30T02:40:26.630Z,26.80
2023-01-30T02:43:24.650Z,27.27
2023-01-30T02:45:56.297Z,26.33
2023-01-30T02:48:40.242Z,25.80
2023-01-30T02:51:11.883Z,23.30
2023-01-30T02:53:38.417Z,31.70
2023-01-30T02:56:05.863Z,24.13
2023-01-30T02:58:37.655Z,26.13
2023-01-30T03:01:10.106Z,27.30
2023-01-30T03:04:01.479Z,28.87
2023-01-30T03:06:44.672Z,27.73
2023-01-30T03:09:58.370Z,30.17
2023-01-30T03:12:50.202Z,27.17
2023-01-30T03:15:21.789Z,28.90
2023-01-30T03:17:48.515Z,33.03
2023-01-30T03:20:16.988Z,28.73
2023-01-30T03:22:43.421Z,25.80
2023-01-30T03:25:11.837Z,24.47
2023-01-30T03:27:38.536Z,24.77
2023-01-30T03:30:05.598Z,32.70
2023-01-30T03:32:32.285Z,29.13
2023-01-30T03:34:58.901Z,28.77
2023-01-30T03:37:25.368Z,29.83
2023-01-30T03:39:51.947Z,28.03
2023-01-30T03:42:18.424Z,30.23
2023-01-30T03:44:44.962Z,34.30
2023-01-30T03:47:11.609Z,33.77
2023-01-30T03:49:38.156Z,32.00
2023-01-30T03:52:04.765Z,36.57
2023-01-30T03:54:31.238Z,35.20
2023-01-30T03:56:57.742Z,32.40
2023-01-30T03:59:24.208Z,35.07
2023-01-30T04:01:50.685Z,35.90
2023-01-30T04:04:17.179Z,32.23
2023-01-30T04:06:43.637Z,38.03
2023-01-30T04:09:10.108Z,37.93
2023-01-30T04:11:36.571Z,35.63
2023-01-30T04:14:03.249Z,38.70
2023-01-30T04:16:29.835Z,33.77
2023-01-30T04:18:56.405Z,31.93
2023-01-30T04:21:22.984Z,31.43
2023-01-30T04:23:49.577Z,33.33
2023-01-30T04:26:16.249Z,33.40
2023-01-30T04:28:44.471Z,34.33
2023-01-30T04:31:11.820Z,30.67
2023-01-30T04:33:39.981Z,36.57
2023-01-30T04:36:08.454Z,32.43
2023-01-30T04:38:35.622Z,28.37
2023-01-30T04:41:02.454Z,30.70
2023-01-30T04:43:29.667Z,33.30
2023-01-30T04:45:56.346Z,27.17
2023-01-30T04:48:24.725Z,26.43
2023-01-30T04:50:52.788Z,28.73
2023-01-30T04:53:20.363Z,23.43
2023-01-30T04:55:47.364Z,23.67
2023-01-30T04:58:13.947Z,24.90
2023-01-30T05:00:40.527Z,23.77
2023-01-30T05:03:07.165Z,20.53
2023-01-30T05:05:34.344Z,24.30
2023-01-30T05:08:01.681Z,20.90
2023-01-30T05:10:28.239Z,25.00
2023-01-30T05:12:57.846Z,21.57
2023-01-30T05:15:24.559Z,20.30
2023-01-30T05:17:51.076Z,22.50
2023-01-30T05:20:17.959Z,22.93
2023-01-30T05:22:44.455Z,21.10
2023-01-30T05:25:11.732Z,24.80
2023-01-30T05:27:38.267Z,23.13
2023-01-30T05:30:05.427Z,22.47
2023-01-30T05:32:32.069Z,21.13
2023-01-30T05:34:58.491Z,27.13
2023-01-30T05:37:25.249Z,24.40
2023-01-30T05:39:51.944Z,20.73
2023-01-30T05:42:18.449Z,20.90
2023-01-30T05:44:45.065Z,22.73
2023-01-30T05:47:11.961Z,22.00
2023-01-30T05:49:38.580Z,23.97
2023-01-30T05:52:05.347Z,21.07
2023-01-30T05:54:31.810Z,20.53
2023-01-30T05:56:58.265Z,19.17
2023-01-30T05:59:24.852Z,20.37
2023-01-30T06:01:51.410Z,21.87
2023-01-30T06:04:17.917Z,22.67
2023-01-30T06:06:44.395Z,22.53
2023-01-30T06:09:11.767Z,21.73
2023-01-30T06:11:38.312Z,20.03
2023-01-30T06:14:04.917Z,22.70
2023-01-30T06:16:31.628Z,20.67
2023-01-30T06:18:58.292Z,19.90
2023-01-30T06:21:24.960Z,19.57
2023-01-30T06:23:51.568Z,21.17
2023-01-30T06:26:18.147Z,19.47
2023-01-30T06:28:44.881Z,20.67
2023-01-30T06:31:11.774Z,22.07
2023-01-30T06:33:38.316Z,23.60
2023-01-30T06:36:05.030Z,20.50
2023-01-30T06:38:31.517Z,21.73
2023-01-30T06:40:57.970Z,22.77
2023-01-30T06:43:24.557Z,22.83
2023-01-30T06:45:51.044Z,21.17
2023-01-30T06:48:17.587Z,23.93
2023-01-30T06:50:46.207Z,21.27
2023-01-30T06:53:13.015Z,24.20
2023-01-30T06:55:39.507Z,22.00
2023-01-30T06:58:13.948Z,23.40
2023-01-30T07:00:42.375Z,21.13
2023-01-30T07:03:14.810Z,26.07
2023-01-30T07:05:42.853Z,20.90
2023-01-30T07:08:09.712Z,22.23
2023-01-30T07:10:36.415Z,22.83
2023-01-30T07:13:03.761Z,21.93
2023-01-30T07:15:31.313Z,25.40
2023-01-30T07:17:58.377Z,25.03
2023-01-30T07:20:25.045Z,24.63
2023-01-30T07:22:52.877Z,26.73
2023-01-30T07:25:21.113Z,23.37
2023-01-30T07:27:55.200Z,27.00
2023-01-30T07:30:22.066Z,24.30
2023-01-30T07:32:53.047Z,26.97
2023-01-30T07:35:20.056Z,30.60
2023-01-30T07:37:48.129Z,25.30
2023-01-30T07:40:15.924Z,26.67
2023-01-30T07:42:42.554Z,27.43
2023-01-30T07:45:09.474Z,32.10
2023-01-30T07:47:36.204Z,43.83
2023-01-30T07:50:03.161Z,28.03
2023-01-30T07:52:29.744Z,30.77
2023-01-30T07:54:56.297Z,29.93
2023-01-30T07:57:22.960Z,35.00
2023-01-30T07:59:49.659Z,30.50
2023-01-30T08:02:16.241Z,40.67
2023-01-30T08:04:42.876Z,32.93
2023-01-30T08:07:09.831Z,34.50
2023-01-30T08:09:36.753Z,39.17
2023-01-30T08:12:03.310Z,38.63
2023-01-30T08:14:29.959Z,36.50
2023-01-30T08:16:57.211Z,38.03
2023-01-30T08:19:23.993Z,38.80
2023-01-30T08:21:50.552Z,38.37
2023-01-30T08:24:17.207Z,35.47
2023-01-30T08:26:43.787Z,39.67
2023-01-30T08:29:10.338Z,39.57
2023-01-30T08:31:36.922Z,47.10
2023-01-30T08:34:03.438Z,45.03
2023-01-30T08:36:30.267Z,47.90
2023-01-30T08:38:57.062Z,44.23
2023-01-30T08:41:23.559Z,41.80
2023-01-30T08:43:50.104Z,40.47
2023-01-30T08:46:17.395Z,54.07
2023-01-30T08:48:49.796Z,51.30
2023-01-30T08:51:16.780Z,53.90
2023-01-30T08:53:43.369Z,44.60
2023-01-30T08:56:10.023Z,48.93
2023-01-30T08:58:36.883Z,59.33
2023-01-30T09:01:07.260Z,46.20
2023-01-30T09:03:33.937Z,50.43
2023-01-30T09:06:00.486Z,49.50
2023-01-30T09:08:26.996Z,56.77
2023-01-30T09:10:57.921Z,46.70
2023-01-30T09:13:24.478Z,61.60
2023-01-30T09:15:50.968Z,60.47
2023-01-30T09:18:17.545Z,58.97
2023-01-30T09:20:44.170Z,54.80
2023-01-30T09:23:10.672Z,53.20
2023-01-30T09:25:37.674Z,51.57
2023-01-30T09:28:04.425Z,46.33
2023-01-30T09:30:31.187Z,49.80
2023-01-30T09:32:57.730Z,50.20
2023-01-30T09:35:24.299Z,51.03
2023-01-30T09:37:52.107Z,48.13
2023-01-30T09:40:21.982Z,58.30
2023-01-30T09:43:05.189Z,52.03
2023-01-30T09:45:51.267Z,51.67
2023-01-30T09:48:25.302Z,50.20
2023-01-30T09:51:14.686Z,52.77
2023-01-30T09:53:55.302Z,50.40
2023-01-30T09:56:21.825Z,43.53
2023-01-30T09:58:55.147Z,41.67
2023-01-30T10:01:29.396Z,49.10
2023-01-30T10:04:23.582Z,42.10
2023-01-30T10:07:03.051Z,47.00
2023-01-30T10:09:37.797Z,43.40
2023-01-30T10:12:17.693Z,40.07
2023-01-30T10:15:14.652Z,34.77
2023-01-30T10:17:58.123Z,40.20
2023-01-30T10:20:47.427Z,39.30
2023-01-30T10:23:26.086Z,44.43
2023-01-30T10:25:58.279Z,42.77
2023-01-30T10:28:29.740Z,43.87
2023-01-30T10:31:05.682Z,40.13
2023-01-30T10:33:40.515Z,38.27
2023-01-30T10:36:11.048Z,51.67
2023-01-30T10:38:44.646Z,45.57
2023-01-30T10:41:25.775Z,48.93
2023-01-30T10:44:13.514Z,42.40
2023-01-30T10:47:06.982Z,38.97
2023-01-30T10:49:42.415Z,48.63
2023-01-30T10:52:21.390Z,41.93
2023-01-30T10:55:00.098Z,39.47
2023-01-30T10:57:51.335Z,43.40
2023-01-30T11:00:30.034Z,42.20
2023-01-30T11:03:02.931Z,40.87
2023-01-30T11:05:40.456Z,41.20
2023-01-30T11:08:22.406Z,44.17
2023-01-30T11:10:49.881Z,36.90
2023-01-30T11:13:27.145Z,36.33
2023-01-30T11:15:56.884Z,38.30
2023-01-30T11:21:15.194Z,35.40
2023-01-30T11:23:42.923Z,34.30
2023-01-30T11:26:45.493Z,30.70
2023-01-30T11:29:24.192Z,30.60
2023-01-30T11:31:51.516Z,28.77
2023-01-30T11:34:19.926Z,26.87
2023-01-30T11:36:47.249Z,33.73
2023-01-30T11:39:14.113Z,26.13
2023-01-30T11:41:45.600Z,25.13
2023-01-30T11:44:12.351Z,24.87
2023-01-30T11:46:42.466Z,24.37
2023-01-30T11:49:46.180Z,24.10
2023-01-30T11:52:01.485Z,27.17
2023-01-30T11:54:38.923Z,24.97
2023-01-30T11:57:11.280Z,23.57
2023-01-30T11:59:59.218Z,24.53
2023-01-30T12:02:32.539Z,24.53
2023-01-30T12:05:05.105Z,25.13
2023-01-30T12:07:36.905Z,28.57
2023-01-30T12:10:30.791Z,39.00
2023-01-30T12:13:00.985Z,34.73
2023-01-30T12:15:35.030Z,35.83
2023-01-30T12:18:21.107Z,30.43
2023-01-30T12:20:59.965Z,32.00
2023-01-30T12:23:49.230Z,31.30
2023-01-30T12:26:17.094Z,31.83
2023-01-30T12:28:54.308Z,30.80
2023-01-30T12:31:32.566Z,31.20
2023-01-30T12:33:59.893Z,29.03
2023-01-30T12:36:48.380Z,26.37
2023-01-30T12:39:27.145Z,25.70
2023-01-30T12:42:01.663Z,25.13
2023-01-30T12:44:40.277Z,27.07
2023-01-30T12:47:18.904Z,28.60
2023-01-30T12:50:06.803Z,28.23
2023-01-30T12:52:55.175Z,29.63
2023-01-30T12:55:43.359Z,28.10
2023-01-30T12:58:27.219Z,28.50
2023-01-30T13:01:06.189Z,27.43
2023-01-30T13:03:43.985Z,27.93
2023-01-30T13:06:24.537Z,29.43
2023-01-30T13:09:15.855Z,29.07
2023-01-30T13:11:56.416Z,30.30
2023-01-30T13:14:27.379Z,27.83
2023-01-30T13:17:04.891Z,28.03
2023-01-30T13:19:41.144Z,34.23
2023-01-30T13:22:13.832Z,30.00
2023-01-30T13:25:07.849Z,29.30
2023-01-30T13:27:37.256Z,28.30
2023-01-30T13:30:06.533Z,32.23
2023-01-30T13:32:35.944Z,31.00
2023-01-30T13:35:05.216Z,33.70
2023-01-30T13:37:32.598Z,34.73
2023-01-30T13:40:02.096Z,31.27
2023-01-30T13:42:30.642Z,34.93
2023-01-30T13:44:58.690Z,32.40
2023-01-30T13:47:39.883Z,39.50
2023-01-30T13:50:19.620Z,37.67
2023-01-30T13:52:46.461Z,33.93
2023-01-30T13:55:42.940Z,36.17
2023-01-30T13:58:47.298Z,38.40
2023-01-30T14:01:14.345Z,42.03
2023-01-30T14:03:42.193Z,37.37
2023-01-30T14:06:14.497Z,39.07
2023-01-30T14:08:54.950Z,36.10
2023-01-30T14:11:33.022Z,40.93
2023-01-30T14:14:03.146Z,36.53
2023-01-30T14:16:48.153Z,37.60
2023-01-30T14:19:32.318Z,38.17
2023-01-30T14:22:02.188Z,36.00
2023-01-30T14:24:31.433Z,39.33
2023-01-30T14:26:57.972Z,37.90
2023-01-30T14:29:41.017Z,36.97
2023-01-30T14:32:14.046Z,37.83
2023-01-30T14:35:14.070Z,34.00
2023-01-30T14:37:43.277Z,36.40
2023-01-30T14:40:29.641Z,40.03
2023-01-30T14:43:24.948Z,37.67
2023-01-30T14:46:16.221Z,35.80
2023-01-30T14:48:55.812Z,35.57
2023-01-30T14:51:31.418Z,34.70
2023-01-30T14:53:59.726Z,35.43
2023-01-30T14:56:45.794Z,34.23
2023-01-30T14:59:25.624Z,41.30
2023-01-30T15:02:13.197Z,41.13
2023-01-30T15:05:03.424Z,39.50
2023-01-30T15:07:48.453Z,43.30
2023-01-30T15:10:31.774Z,42.20
2023-01-30T15:13:16.785Z,40.80
2023-01-30T15:16:05.209Z,38.30
2023-01-30T15:18:53.111Z,38.10
2023-01-30T15:21:50.469Z,38.07
2023-01-30T15:24:46.527Z,38.43
2023-01-30T15:27:13.148Z,36.17
2023-01-30T15:29:51.372Z,40.50
2023-01-30T15:32:23.124Z,35.67
2023-01-30T15:34:52.292Z,34.70
2023-01-30T15:37:37.063Z,34.17
2023-01-30T15:40:11.800Z,32.97
2023-01-30T15:42:38.491Z,34.33
2023-01-30T15:45:13.853Z,38.30
2023-01-30T15:48:02.142Z,33.23
2023-01-30T15:50:28.895Z,31.03
2023-01-30T15:52:56.581Z,30.47
2023-01-30T15:55:31.530Z,30.40
2023-01-30T15:58:10.964Z,34.27
2023-01-30T16:00:41.298Z,28.20
2023-01-30T16:03:12.005Z,33.07
2023-01-30T16:05:47.076Z,29.40
2023-01-30T16:08:25.135Z,30.23
2023-01-30T16:10:52.061Z,38.50
2023-01-30T16:13:21.037Z,33.60
2023-01-30T16:15:48.788Z,32.03
2023-01-30T16:18:21.382Z,32.50
2023-01-30T16:21:01.735Z,32.60
2023-01-30T16:23:35.587Z,36.57
2023-01-30T16:26:02.431Z,27.40
2023-01-30T16:28:29.820Z,28.03
2023-01-30T16:31:07.363Z,30.33
2023-01-30T16:33:37.538Z,33.93
2023-01-30T16:36:24.078Z,28.47
2023-01-30T16:38:51.856Z,30.97
2023-01-30T16:41:27.746Z,29.33
2023-01-30T16:44:18.255Z,28.97
2023-01-30T16:46:56.569Z,30.17
2023-01-30T16:50:01.353Z,27.50
2023-01-30T16:52:41.420Z,31.37
2023-01-30T16:55:21.396Z,30.80
2023-01-30T16:57:54.104Z,33.87
2023-01-30T17:00:38.752Z,31.03
2023-01-30T17:03:28.716Z,24.97
2023-01-30T17:05:56.150Z,25.17
2023-01-30T17:08:31.919Z,29.67
2023-01-30T17:11:04.556Z,27.57
2023-01-30T17:13:42.920Z,33.47
2023-01-30T17:16:33.363Z,26.37
2023-01-30T17:19:00.925Z,29.00
2023-01-30T17:21:31.400Z,33.80
2023-01-30T17:24:01.254Z,32.07
2023-01-30T17:26:28.308Z,42.53
2023-01-30T17:28:54.825Z,33.47
2023-01-30T17:31:22.085Z,35.80
2023-01-30T17:33:48.764Z,28.30
2023-01-30T17:36:29.611Z,27.83
2023-01-30T17:38:58.187Z,26.33
2023-01-30T17:41:33.553Z,20.60
2023-01-30T17:44:00.177Z,23.13
2023-01-30T17:46:32.416Z,24.83
2023-01-30T17:48:58.947Z,26.07
2023-01-30T17:51:25.446Z,19.97
2023-01-30T17:53:54.894Z,25.20
2023-01-30T17:56:36.955Z,23.97
2023-01-30T17:59:06.420Z,29.00
2023-01-30T18:01:33.117Z,26.80
2023-01-30T18:03:59.648Z,23.33
2023-01-30T18:06:27.134Z,30.33
2023-01-30T18:08:53.705Z,33.93
2023-01-30T18:11:22.564Z,27.90
2023-01-30T18:13:49.192Z,27.17
2023-01-30T18:16:23.817Z,27.63
2023-01-30T18:18:50.626Z,28.57
2023-01-30T18:21:17.489Z,26.20
2023-01-30T18:23:44.205Z,27.07
2023-01-30T18:26:13.012Z,23.63
2023-01-30T18:28:39.847Z,22.73
2023-01-30T18:31:06.894Z,20.90
2023-01-30T18:33:34.031Z,24.27
2023-01-30T18:36:08.516Z,24.80
2023-01-30T18:38:35.707Z,22.23
2023-01-30T18:41:31.308Z,24.27
2023-01-30T18:44:00.118Z,21.57
2023-01-30T18:46:27.639Z,24.97
2023-01-30T18:48:55.614Z,22.07
2023-01-30T18:51:27.863Z,24.70
2023-01-30T18:53:55.130Z,23.73
2023-01-30T18:56:24.987Z,20.27
2023-01-30T18:58:54.518Z,22.90
2023-01-30T19:01:23.527Z,24.47
2023-01-30T19:03:50.271Z,23.60
2023-01-30T19:06:18.819Z,23.47
2023-01-30T19:08:45.580Z,22.57
2023-01-30T19:11:35.870Z,26.47
2023-01-30T19:14:03.448Z,23.03
2023-01-30T19:16:34.052Z,30.43
2023-01-30T19:19:00.613Z,23.40
2023-01-30T19:21:27.233Z,25.80
2023-01-30T19:23:54.436Z,24.80
2023-01-30T19:26:22.576Z,20.80
2023-01-30T19:28:49.447Z,24.93
2023-01-30T19:31:18.396Z,30.67
2023-01-30T19:33:46.714Z,23.47
2023-01-30T19:36:15.484Z,24.50
2023-01-30T19:38:42.947Z,23.87
2023-01-30T19:41:14.175Z,29.07
2023-01-30T19:43:41.057Z,29.77
2023-01-30T19:46:08.287Z,25.80
2023-01-30T19:48:34.868Z,23.23
2023-01-30T19:51:20.492Z,32.73
2023-01-30T19:53:51.623Z,27.37
2023-01-30T19:56:21.680Z,30.13
2023-01-30T19:58:50.787Z,27.67
2023-01-30T20:01:18.909Z,23.67
2023-01-30T20:03:45.921Z,26.87
2023-01-30T20:06:17.206Z,23.47
2023-01-30T20:08:44.762Z,26.03
2023-01-30T20:11:15.669Z,20.33
2023-01-30T20:13:43.630Z,27.40
2023-01-30T20:16:13.066Z,28.20
2023-01-30T20:18:40.891Z,33.63
2023-01-30T20:21:28.200Z,28.70
2023-01-30T20:23:55.254Z,30.97
2023-01-30T20:26:23.856Z,29.97
2023-01-30T20:28:50.989Z,29.43
2023-01-30T20:31:20.700Z,31.83
2023-01-30T20:33:47.387Z,30.87
2023-01-30T20:36:17.841Z,30.00
2023-01-30T20:38:45.043Z,30.00
2023-01-30T20:41:20.226Z,35.33
2023-01-30T20:43:51.115Z,32.30
2023-01-30T20:46:20.503Z,31.57
2023-01-30T20:48:47.578Z,32.83
2023-01-30T20:51:19.493Z,38.73
2023-01-30T20:53:54.803Z,31.73
2023-01-30T20:56:22.710Z,32.27
2023-01-30T20:58:49.251Z,28.53
2023-01-30T21:01:21.532Z,27.30
2023-01-30T21:03:50.513Z,24.80
2023-01-30T21:06:41.333Z,23.10
2023-01-30T21:09:11.808Z,28.60
2023-01-30T21:11:39.464Z,26.87
2023-01-30T21:14:06.132Z,28.80
2023-01-30T21:16:33.856Z,23.20
2023-01-30T21:19:03.275Z,28.43
2023-01-30T21:21:33.045Z,29.90
2023-01-30T21:24:02.581Z,28.33
2023-01-30T21:26:31.539Z,26.07
2023-01-30T21:29:00.287Z,25.13
2023-01-30T21:31:28.899Z,26.07
2023-01-30T21:33:56.615Z,27.03
2023-01-30T21:36:23.710Z,29.63
2023-01-30T21:39:08.894Z,23.70
2023-01-30T21:41:59.177Z,25.70
2023-01-30T21:44:27.785Z,22.30
2023-01-30T21:46:54.401Z,26.13
2023-01-30T21:49:21.229Z,23.57
2023-01-30T21:51:49.309Z,26.03
2023-01-30T21:54:17.328Z,21.90
2023-01-30T21:56:44.468Z,24.70
2023-01-30T21:59:11.849Z,22.97
2023-01-30T22:01:40.006Z,24.17
2023-01-30T22:04:09.223Z,29.23
2023-01-30T22:06:37.700Z,25.87
2023-01-30T22:09:05.429Z,23.63
2023-01-30T22:11:31.983Z,24.10
2023-01-30T22:13:58.569Z,22.57
2023-01-30T22:16:27.554Z,21.40
2023-01-30T22:18:59.877Z,25.47
2023-01-30T22:21:29.024Z,20.93
2023-01-30T22:23:55.967Z,17.97
2023-01-30T22:26:24.261Z,20.73
2023-01-30T22:28:58.704Z,19.33
2023-01-30T22:31:26.729Z,22.33
2023-01-30T22:33:55.553Z,20.10
2023-01-30T22:36:27.255Z,19.97
2023-01-30T22:38:54.614Z,22.00
2023-01-30T22:41:25.460Z,19.87
2023-01-30T22:43:56.654Z,22.20
2023-01-30T22:46:34.566Z,26.23
2023-01-30T22:49:02.202Z,17.40
2023-01-30T22:51:37.074Z,21.13
2023-01-30T22:54:15.934Z,19.33
2023-01-30T22:56:45.631Z,19.20
2023-01-30T22:59:12.970Z,20.17
2023-01-30T23:01:41.669Z,19.27
2023-01-30T23:04:16.440Z,13.93
2023-01-30T23:06:43.644Z,22.30
2023-01-30T23:09:14.691Z,18.83
2023-01-30T23:11:44.944Z,20.10
2023-01-30T23:14:14.966Z,18.07
2023-01-30T23:16:43.652Z,20.27
2023-01-30T23:19:12.169Z,24.27
2023-01-30T23:21:41.261Z,19.57
2023-01-30T23:24:11.708Z,21.33
2023-01-30T23:26:42.817Z,15.87
2023-01-30T23:29:13.034Z,32.33
2023-01-30T23:31:40.344Z,21.53
2023-01-30T23:34:10.844Z,17.17
2023-01-30T23:36:37.692Z,20.33
2023-01-30T23:39:05.430Z,23.70
2023-01-30T23:41:33.750Z,18.90
2023-01-30T23:44:00.827Z,17.83
2023-01-30T23:46:29.567Z,19.30
2023-01-30T23:48:57.875Z,21.63
2023-01-30T23:51:26.550Z,20.83
2023-01-30T23:53:54.147Z,22.83
2023-01-30T23:56:21.911Z,16.97
2023-01-30T23:58:49.856Z,23.80
